createdAt,value
2023-04-10T00:01:47.881Z,101861.56
2023-04-10T00:04:16.768Z,101848.28
2023-04-10T00:06:45.216Z,101866.91
2023-04-10T00:09:13.649Z,101857.19
2023-04-10T00:11:41.960Z,101858.94
2023-04-10T00:14:10.263Z,101856.28
2023-04-10T00:16:38.629Z,101852.75
2023-04-10T00:19:08.794Z,101847.44
2023-04-10T00:21:37.158Z,101853.66
2023-04-10T00:24:05.820Z,101854.50
2023-04-10T00:26:34.163Z,101858.91
2023-04-10T00:29:03.008Z,101849.19
2023-04-10T00:31:31.659Z,101850.09
2023-04-10T00:33:59.986Z,101842.97
2023-04-10T00:36:29.707Z,101853.56
2023-04-10T00:38:57.952Z,101830.53
2023-04-10T00:41:26.366Z,101825.22
2023-04-10T00:43:57.531Z,101823.44
2023-04-10T00:46:27.592Z,101819.81
2023-04-10T00:48:57.447Z,101819.84
2023-04-10T00:51:26.514Z,101814.47
2023-04-10T00:53:56.604Z,101813.59
2023-04-10T00:56:26.066Z,101801.16
2023-04-10T00:58:54.530Z,101795.00
2023-04-10T01:01:22.923Z,101799.41
2023-04-10T01:03:51.790Z,101794.13
2023-04-10T01:06:32.131Z,101775.47
2023-04-10T01:09:12.382Z,101771.06
2023-04-10T01:11:54.493Z,101776.31
2023-04-10T01:14:32.532Z,101771.03
2023-04-10T01:17:08.567Z,101769.25
2023-04-10T01:20:01.156Z,101763.09
2023-04-10T01:22:37.669Z,101648.78
2023-04-10T01:25:25.496Z,101746.19
2023-04-10T01:28:10.636Z,101753.19
2023-04-10T01:30:41.316Z,101751.34
2023-04-10T01:33:14.416Z,101752.25
2023-04-10T01:35:45.579Z,101753.09
2023-04-10T01:38:15.077Z,101746.00
2023-04-10T01:40:50.090Z,101738.91
2023-04-10T01:43:27.807Z,101740.63
2023-04-10T01:45:58.798Z,101731.78
2023-04-10T01:48:27.648Z,101722.03
2023-04-10T01:50:57.433Z,101733.53
2023-04-10T01:53:26.800Z,101732.63
2023-04-10T01:55:55.372Z,101733.44
2023-04-10T01:58:23.921Z,101730.72
2023-04-10T02:00:55.590Z,101738.72
2023-04-10T02:03:25.950Z,101728.13
2023-04-10T02:06:11.184Z,101724.53
2023-04-10T02:08:43.984Z,101715.59
2023-04-10T02:11:18.751Z,101735.06
2023-04-10T02:13:48.442Z,101736.81
2023-04-10T02:16:20.625Z,101731.47
2023-04-10T02:18:52.929Z,101738.50
2023-04-10T02:21:21.516Z,101728.81
2023-04-10T02:23:49.860Z,101727.00
2023-04-10T02:26:18.163Z,101724.31
2023-04-10T02:28:46.478Z,101691.41
2023-04-10T02:31:14.895Z,101740.97
2023-04-10T02:33:43.273Z,101734.78
2023-04-10T02:36:14.390Z,101743.66
2023-04-10T02:38:42.752Z,101744.53
2023-04-10T02:41:12.472Z,101740.97
2023-04-10T02:43:41.325Z,101739.28
2023-04-10T02:46:09.920Z,101753.47
2023-04-10T02:48:41.364Z,101747.28
2023-04-10T02:51:09.728Z,101747.34
2023-04-10T02:53:39.668Z,101748.19
2023-04-10T02:56:09.152Z,101737.66
2023-04-10T02:58:37.460Z,101749.09
2023-04-10T03:01:08.035Z,101719.97
2023-04-10T03:03:45.313Z,101731.56
2023-04-10T03:06:19.390Z,101722.63
2023-04-10T03:08:49.825Z,101721.72
2023-04-10T03:11:18.181Z,101715.59
2023-04-10T03:13:46.569Z,101712.88
2023-04-10T03:16:15.015Z,101720.03
2023-04-10T03:18:44.132Z,101719.88
2023-04-10T03:21:12.606Z,101717.22
2023-04-10T03:23:40.854Z,101715.53
2023-04-10T03:26:10.655Z,101721.53
2023-04-10T03:28:41.403Z,101708.31
2023-04-10T03:31:12.419Z,101704.72
2023-04-10T03:33:42.312Z,101695.81
2023-04-10T03:36:12.188Z,101692.31
2023-04-10T03:38:40.591Z,101688.78
2023-04-10T03:41:11.862Z,101687.94
2023-04-10T03:43:40.979Z,101678.25
2023-04-10T03:46:09.956Z,101676.47
2023-04-10T03:48:43.156Z,101682.63
2023-04-10T03:51:12.083Z,101669.41
2023-04-10T03:53:40.394Z,101668.63
2023-04-10T03:56:15.423Z,101668.63
2023-04-10T03:58:43.952Z,101659.84
2023-04-10T04:01:13.719Z,101666.06
2023-04-10T04:04:01.337Z,101661.75
2023-04-10T04:06:49.950Z,101662.63
2023-04-10T04:09:29.348Z,101664.44
2023-04-10T04:12:25.112Z,101660.09
2023-04-10T04:15:12.309Z,101668.13
2023-04-10T04:17:49.435Z,101654.03
2023-04-10T04:20:36.508Z,101656.66
2023-04-10T04:23:31.135Z,101652.28
2023-04-10T04:26:19.737Z,101640.75
2023-04-10T04:28:59.200Z,101631.97
2023-04-10T04:31:46.452Z,101639.06
2023-04-10T04:34:31.203Z,101637.31
2023-04-10T04:37:18.109Z,101634.72
2023-04-10T04:40:06.186Z,101623.22
2023-04-10T04:42:47.425Z,101632.03
2023-04-10T04:45:25.505Z,101632.00
2023-04-10T04:48:13.759Z,101620.47
2023-04-10T04:51:00.465Z,101595.69
2023-04-10T04:53:49.042Z,101623.94
2023-04-10T04:56:35.940Z,101618.56
2023-04-10T04:59:11.345Z,101628.28
2023-04-10T05:01:57.421Z,101624.72
2023-04-10T05:04:58.454Z,101623.81
2023-04-10T05:07:40.637Z,101618.47
2023-04-10T05:10:40.006Z,101617.63
2023-04-10T05:13:17.423Z,101621.13
2023-04-10T05:16:15.075Z,101620.25
2023-04-10T05:19:09.092Z,101616.69
2023-04-10T05:21:55.833Z,101615.72
2023-04-10T05:24:42.777Z,101619.28
2023-04-10T05:27:15.076Z,101595.41
2023-04-10T05:30:02.324Z,101604.25
2023-04-10T05:33:00.328Z,101608.69
2023-04-10T05:35:54.415Z,101610.47
2023-04-10T05:38:38.391Z,101610.47
2023-04-10T05:41:27.470Z,101596.34
2023-04-10T05:44:04.332Z,101592.81
2023-04-10T05:46:51.262Z,101590.16
2023-04-10T05:49:27.530Z,101597.25
2023-04-10T05:52:15.799Z,101590.22
2023-04-10T05:54:44.079Z,101590.22
2023-04-10T05:57:27.497Z,101592.00
2023-04-10T06:00:28.076Z,101595.50
2023-04-10T06:03:30.644Z,101580.53
2023-04-10T06:06:03.514Z,101584.97
2023-04-10T06:08:34.719Z,101580.53
2023-04-10T06:11:03.386Z,101584.97
2023-04-10T06:13:33.484Z,101587.63
2023-04-10T06:16:03.421Z,101567.34
2023-04-10T06:18:32.838Z,101567.38
2023-04-10T06:21:02.044Z,101555.00
2023-04-10T06:23:30.646Z,101553.22
2023-04-10T06:26:01.248Z,101540.88
2023-04-10T06:28:30.184Z,101543.56
2023-04-10T06:31:04.272Z,101550.63
2023-04-10T06:33:36.690Z,101536.53
2023-04-10T06:36:08.073Z,101541.88
2023-04-10T06:38:42.625Z,101535.72
2023-04-10T06:41:12.310Z,101542.81
2023-04-10T06:43:41.193Z,101543.69
2023-04-10T06:46:09.559Z,101541.94
2023-04-10T06:48:37.844Z,101552.56
2023-04-10T06:51:06.560Z,101541.09
2023-04-10T06:53:34.846Z,101528.75
2023-04-10T06:56:03.783Z,101542.91
2023-04-10T06:58:33.801Z,101531.41
2023-04-10T07:01:04.525Z,101528.78
2023-04-10T07:03:33.831Z,101516.41
2023-04-10T07:06:03.422Z,101522.63
2023-04-10T07:08:31.939Z,101523.50
2023-04-10T07:11:00.318Z,101522.63
2023-04-10T07:13:28.689Z,101511.19
2023-04-10T07:15:58.405Z,101509.41
2023-04-10T07:18:27.148Z,101497.06
2023-04-10T07:20:55.453Z,101487.31
2023-04-10T07:23:23.789Z,101482.91
2023-04-10T07:25:52.798Z,101491.75
2023-04-10T07:28:21.161Z,101485.56
2023-04-10T07:30:49.453Z,101485.56
2023-04-10T07:33:19.350Z,101471.47
2023-04-10T07:35:48.180Z,101490.84
2023-04-10T07:38:16.523Z,101473.25
2023-04-10T07:40:44.868Z,101441.38
2023-04-10T07:43:13.320Z,101482.06
2023-04-10T07:45:42.656Z,101461.75
2023-04-10T07:48:11.280Z,101458.22
2023-04-10T07:50:41.147Z,101458.25
2023-04-10T07:53:09.544Z,101449.38
2023-04-10T07:55:41.032Z,101457.34
2023-04-10T07:58:09.531Z,101452.06
2023-04-10T08:00:38.363Z,101452.06
2023-04-10T08:03:07.497Z,101431.72
2023-04-10T08:05:36.487Z,101420.25
2023-04-10T08:08:06.296Z,101423.78
2023-04-10T08:10:34.650Z,101419.34
2023-04-10T08:13:03.001Z,101409.63
2023-04-10T08:15:31.405Z,101420.22
2023-04-10T08:17:59.797Z,101415.81
2023-04-10T08:20:28.608Z,101376.06
2023-04-10T08:23:03.186Z,101397.25
2023-04-10T08:25:35.901Z,101417.53
2023-04-10T08:28:05.335Z,101412.22
2023-04-10T08:30:33.618Z,101412.22
2023-04-10T08:33:02.105Z,101411.31
2023-04-10T08:35:30.487Z,101410.41
2023-04-10T08:38:12.691Z,101399.78
2023-04-10T08:40:44.785Z,101390.03
2023-04-10T08:43:13.229Z,101392.66
2023-04-10T08:45:42.404Z,101389.94
2023-04-10T08:48:12.604Z,101374.00
2023-04-10T08:50:44.099Z,101380.19
2023-04-10T08:53:15.432Z,101381.13
2023-04-10T08:55:46.635Z,101363.41
2023-04-10T08:58:15.861Z,101366.13
2023-04-10T09:00:44.597Z,101367.88
2023-04-10T09:03:14.913Z,101373.22
2023-04-10T09:05:43.674Z,101353.75
2023-04-10T09:08:12.265Z,101360.78
2023-04-10T09:10:40.742Z,101242.56
2023-04-10T09:13:10.448Z,101346.63
2023-04-10T09:15:57.457Z,101335.19
2023-04-10T09:18:43.527Z,101350.19
2023-04-10T09:21:14.668Z,101341.38
2023-04-10T09:23:44.517Z,101326.31
2023-04-10T09:26:28.125Z,101219.63
2023-04-10T09:29:04.034Z,101330.66
2023-04-10T09:31:35.911Z,101298.88
2023-04-10T09:34:14.610Z,101326.19
2023-04-10T09:36:43.730Z,101325.22
2023-04-10T09:39:13.601Z,101323.47
2023-04-10T09:41:53.541Z,101334.03
2023-04-10T09:44:32.737Z,101327.81
2023-04-10T09:47:23.206Z,101313.69
2023-04-10T09:49:53.378Z,101295.94
2023-04-10T09:52:25.617Z,101279.19
2023-04-10T09:54:55.832Z,101268.56
2023-04-10T09:57:26.593Z,101296.81
2023-04-10T09:59:57.345Z,101308.19
2023-04-10T10:02:27.299Z,101277.94
2023-04-10T10:04:56.162Z,101293.81
2023-04-10T10:07:25.591Z,101290.06
2023-04-10T10:09:54.508Z,101277.59
2023-04-10T10:12:28.072Z,101281.97
2023-04-10T10:15:04.847Z,101287.94
2023-04-10T10:17:44.653Z,101285.22
2023-04-10T10:20:14.792Z,101265.59
2023-04-10T10:22:44.122Z,101263.69
2023-04-10T10:25:14.248Z,101263.00
2023-04-10T10:27:43.616Z,101230.16
2023-04-10T10:30:28.202Z,101252.34
2023-04-10T10:32:59.928Z,101232.72
2023-04-10T10:35:30.157Z,101193.94
2023-04-10T10:38:00.474Z,101214.72
2023-04-10T10:40:33.603Z,101221.56
2023-04-10T10:43:12.240Z,101224.94
2023-04-10T10:45:52.993Z,101193.78
2023-04-10T10:48:21.286Z,101191.88
2023-04-10T10:50:56.254Z,101190.69
2023-04-10T10:53:39.672Z,101209.06
2023-04-10T10:56:37.227Z,101179.91
2023-04-10T10:59:05.688Z,101171.16
2023-04-10T11:01:35.439Z,101182.28
2023-04-10T11:04:43.869Z,101193.06
2023-04-10T11:07:12.380Z,101163.66
2023-04-10T11:09:48.825Z,101203.06
2023-04-10T11:12:18.165Z,101165.16
2023-04-10T11:14:58.050Z,101157.78
2023-04-10T11:17:51.165Z,101174.38
2023-04-10T11:20:21.799Z,101156.69
2023-04-10T11:23:11.168Z,101163.97
2023-04-10T11:25:51.268Z,101132.16
2023-04-10T11:28:39.184Z,101131.88
2023-04-10T11:31:22.083Z,101044.06
2023-04-10T11:34:04.509Z,101148.72
2023-04-10T11:36:33.527Z,101141.50
2023-04-10T11:39:05.767Z,101138.16
2023-04-10T11:41:36.827Z,101107.13
2023-04-10T11:44:08.343Z,101120.91
2023-04-10T11:46:39.091Z,101103.13
2023-04-10T11:49:10.387Z,101097.69
2023-04-10T11:51:40.827Z,101086.22
2023-04-10T11:54:12.337Z,101079.34
2023-04-10T11:56:44.112Z,101091.47
2023-04-10T11:59:16.339Z,101096.09
2023-04-10T12:01:45.022Z,101115.47
2023-04-10T12:04:20.923Z,101078.97
2023-04-10T12:06:54.008Z,101084.19
2023-04-10T12:09:23.184Z,101092.84
2023-04-10T12:11:53.637Z,101092.00
2023-04-10T12:14:23.194Z,101093.63
2023-04-10T12:16:52.824Z,101076.94
2023-04-10T12:19:23.733Z,101062.84
2023-04-10T12:21:52.384Z,101078.81
2023-04-10T12:24:46.791Z,101050.31
2023-04-10T12:27:19.104Z,101056.78
2023-04-10T12:29:50.867Z,101064.66
2023-04-10T12:32:19.967Z,101063.94
2023-04-10T12:34:54.375Z,101052.31
2023-04-10T12:37:22.761Z,101036.69
2023-04-10T12:39:51.855Z,101054.72
2023-04-10T12:42:22.683Z,101038.03
2023-04-10T12:44:56.125Z,101035.00
2023-04-10T12:47:25.655Z,101031.25
2023-04-10T12:50:12.987Z,101009.28
2023-04-10T12:52:44.024Z,101021.78
2023-04-10T12:55:17.559Z,100996.47
2023-04-10T12:57:47.449Z,101009.78
2023-04-10T13:00:18.332Z,100989.31
2023-04-10T13:02:49.176Z,101007.91
2023-04-10T13:05:19.035Z,100986.72
2023-04-10T13:07:49.047Z,100988.69
2023-04-10T13:10:20.238Z,100990.38
2023-04-10T13:12:48.852Z,100978.91
2023-04-10T13:15:17.718Z,100973.75
2023-04-10T13:17:46.114Z,100983.38
2023-04-10T13:20:14.474Z,100965.59
2023-04-10T13:22:44.257Z,100979.75
2023-04-10T13:25:12.582Z,100958.47
2023-04-10T13:27:40.921Z,100958.47
2023-04-10T13:30:10.574Z,100967.31
2023-04-10T13:32:38.919Z,100964.75
2023-04-10T13:35:09.064Z,100951.63
2023-04-10T13:37:37.402Z,100945.41
2023-04-10T13:40:09.341Z,100935.75
2023-04-10T13:42:40.536Z,100973.31
2023-04-10T13:45:11.432Z,100947.72
2023-04-10T13:47:39.803Z,100960.16
2023-04-10T13:50:09.311Z,100950.69
2023-04-10T13:52:37.639Z,100939.19
2023-04-10T13:55:09.098Z,100934.16
2023-04-10T13:57:37.745Z,100927.91
2023-04-10T14:00:10.269Z,100958.03
2023-04-10T14:02:41.890Z,100906.66
2023-04-10T14:05:11.883Z,100892.63
2023-04-10T14:07:40.290Z,100897.00
2023-04-10T14:10:11.652Z,100877.34
2023-04-10T14:12:40.007Z,100910.25
2023-04-10T14:15:09.840Z,100880.00
2023-04-10T14:17:38.243Z,100896.16
2023-04-10T14:20:11.341Z,100898.72
2023-04-10T14:22:39.798Z,100894.31
2023-04-10T14:25:15.853Z,100896.38
2023-04-10T14:27:45.554Z,100872.38
2023-04-10T14:30:14.042Z,100875.91
2023-04-10T14:32:42.631Z,100873.19
2023-04-10T14:35:11.995Z,100794.25
2023-04-10T14:37:40.601Z,100852.28
2023-04-10T14:40:11.980Z,100861.59
2023-04-10T14:42:40.345Z,100859.97
2023-04-10T14:45:10.599Z,100864.31
2023-04-10T14:47:39.004Z,100875.78
2023-04-10T14:50:09.080Z,100876.63
2023-04-10T14:52:37.415Z,100882.91
2023-04-10T14:55:06.733Z,100867.91
2023-04-10T14:57:36.473Z,100877.66
2023-04-10T15:00:05.686Z,100855.59
2023-04-10T15:02:34.100Z,100884.91
2023-04-10T15:05:02.572Z,100861.84
2023-04-10T15:07:31.053Z,100853.88
2023-04-10T15:09:59.720Z,100892.84
2023-04-10T15:12:28.043Z,100860.97
2023-04-10T15:14:57.728Z,100780.25
2023-04-10T15:17:26.157Z,100859.19
2023-04-10T15:19:54.511Z,100863.63
2023-04-10T15:22:22.772Z,100878.75
2023-04-10T15:24:51.255Z,100848.56
2023-04-10T15:27:21.559Z,100824.78
2023-04-10T15:29:50.318Z,100854.72
2023-04-10T15:32:20.167Z,100829.84
2023-04-10T15:34:48.581Z,100829.94
2023-04-10T15:37:16.914Z,100832.53
2023-04-10T15:39:45.272Z,100796.38
2023-04-10T15:42:13.637Z,100818.50
2023-04-10T15:44:41.977Z,100810.44
2023-04-10T15:47:10.224Z,100795.47
2023-04-10T15:49:41.921Z,100821.97
2023-04-10T15:52:10.351Z,100814.84
2023-04-10T15:54:39.943Z,100782.88
2023-04-10T15:57:08.276Z,100773.22
2023-04-10T15:59:38.114Z,100740.56
2023-04-10T16:02:06.553Z,100787.47
2023-04-10T16:04:35.381Z,100758.19
2023-04-10T16:07:05.202Z,100739.63
2023-04-10T16:09:33.686Z,100741.44
2023-04-10T16:12:02.118Z,100751.03
2023-04-10T16:14:30.530Z,100763.44
2023-04-10T16:16:58.800Z,100766.13
2023-04-10T16:19:27.190Z,100749.25
2023-04-10T16:21:57.098Z,100765.25
2023-04-10T16:24:26.929Z,100783.03
2023-04-10T16:26:55.232Z,100762.59
2023-04-10T16:29:23.542Z,100781.09
2023-04-10T16:31:51.889Z,100805.03
2023-04-10T16:34:20.324Z,100761.81
2023-04-10T16:36:48.650Z,100769.47
2023-04-10T16:39:17.000Z,100765.91
2023-04-10T16:41:46.672Z,100767.75
2023-04-10T16:44:15.001Z,100770.31
2023-04-10T16:46:43.416Z,100751.75
2023-04-10T16:49:11.789Z,100762.50
2023-04-10T16:51:40.210Z,100784.53
2023-04-10T16:54:08.609Z,100766.81
2023-04-10T16:56:36.910Z,100742.03
2023-04-10T16:59:06.601Z,100742.94
2023-04-10T17:01:39.600Z,100747.38
2023-04-10T17:04:09.267Z,100727.81
2023-04-10T17:06:37.711Z,100733.09
2023-04-10T17:09:06.131Z,100734.72
2023-04-10T17:11:34.435Z,100726.00
2023-04-10T17:14:03.106Z,100722.50
2023-04-10T17:16:32.964Z,100716.25
2023-04-10T17:19:01.272Z,100712.78
2023-04-10T17:21:29.708Z,100699.47
2023-04-10T17:23:58.071Z,100698.63
2023-04-10T17:26:26.405Z,100707.47
2023-04-10T17:28:54.767Z,100688.31
2023-04-10T17:31:23.228Z,100680.81
2023-04-10T17:33:52.981Z,100718.13
2023-04-10T17:36:21.352Z,100695.19
2023-04-10T17:38:54.021Z,100705.75
2023-04-10T17:41:22.594Z,100703.13
2023-04-10T17:43:51.046Z,100726.19
2023-04-10T17:46:19.382Z,100702.25
2023-04-10T17:48:47.803Z,100655.53
2023-04-10T17:51:17.610Z,100692.56
2023-04-10T17:53:46.207Z,100712.78
2023-04-10T17:56:20.958Z,100676.31
2023-04-10T17:58:49.476Z,100676.53
2023-04-10T18:01:25.734Z,100669.53
2023-04-10T18:03:54.198Z,100678.28
2023-04-10T18:06:24.207Z,100700.47
2023-04-10T18:08:52.817Z,100691.72
2023-04-10T18:11:22.756Z,100680.09
2023-04-10T18:13:51.430Z,100692.41
2023-04-10T18:16:19.933Z,100689.03
2023-04-10T18:18:48.365Z,100709.28
2023-04-10T18:21:16.821Z,100678.44
2023-04-10T18:23:46.578Z,100694.38
2023-04-10T18:26:15.023Z,100669.47
2023-04-10T18:28:43.567Z,100665.09
2023-04-10T18:31:14.767Z,100670.31
2023-04-10T18:33:43.644Z,100668.53
2023-04-10T18:36:14.020Z,100670.34
2023-04-10T18:38:43.876Z,100669.47
2023-04-10T18:41:13.733Z,100668.50
2023-04-10T18:43:42.376Z,100685.38
2023-04-10T18:46:14.246Z,100671.16
2023-04-10T18:48:44.017Z,100696.91
2023-04-10T18:51:12.656Z,100697.75
2023-04-10T18:53:41.348Z,100697.91
2023-04-10T18:56:09.929Z,100693.56
2023-04-10T18:58:39.609Z,100703.34
2023-04-10T19:01:08.453Z,100685.66
2023-04-10T19:03:37.509Z,100674.31
2023-04-10T19:06:06.465Z,100679.53
2023-04-10T19:08:34.815Z,100668.97
2023-04-10T19:11:05.990Z,100665.44
2023-04-10T19:13:34.763Z,100669.81
2023-04-10T19:16:08.913Z,100671.59
2023-04-10T19:18:37.256Z,100663.72
2023-04-10T19:21:06.150Z,100663.66
2023-04-10T19:23:35.533Z,100665.44
2023-04-10T19:26:03.882Z,100645.34
2023-04-10T19:28:32.656Z,100669.81
2023-04-10T19:31:01.070Z,100664.63
2023-04-10T19:33:30.906Z,100673.56
2023-04-10T19:35:59.277Z,100670.00
2023-04-10T19:38:29.312Z,100675.25
2023-04-10T19:40:57.677Z,100668.19
2023-04-10T19:43:26.294Z,100565.81
2023-04-10T19:45:55.116Z,100692.16
2023-04-10T19:48:23.526Z,100690.44
2023-04-10T19:50:53.342Z,100684.88
2023-04-10T19:53:21.745Z,100685.75
2023-04-10T19:55:50.199Z,100675.16
2023-04-10T19:58:36.011Z,100675.19
2023-04-10T20:01:08.722Z,100661.13
2023-04-10T20:03:38.533Z,100664.63
2023-04-10T20:06:09.126Z,100651.28
2023-04-10T20:08:37.884Z,100642.50
2023-04-10T20:11:07.102Z,100635.47
2023-04-10T20:13:35.605Z,100662.03
2023-04-10T20:16:03.987Z,100654.25
2023-04-10T20:18:32.844Z,100622.78
2023-04-10T20:21:01.270Z,100651.75
2023-04-10T20:23:31.213Z,100648.13
2023-04-10T20:25:59.578Z,100646.53
2023-04-10T20:28:28.000Z,100638.59
2023-04-10T20:30:56.402Z,100627.13
2023-04-10T20:33:24.873Z,100628.94
2023-04-10T20:35:54.511Z,100624.59
2023-04-10T20:38:22.807Z,100631.56
2023-04-10T20:40:52.477Z,100611.25
2023-04-10T20:43:21.062Z,100636.19
2023-04-10T20:45:49.363Z,100624.69
2023-04-10T20:48:17.713Z,100613.28
2023-04-10T20:50:49.088Z,100623.94
2023-04-10T20:53:17.485Z,100616.91
2023-04-10T20:55:45.790Z,100613.44
2023-04-10T20:58:15.562Z,100633.72
2023-04-10T21:00:43.921Z,100616.84
2023-04-10T21:03:12.449Z,100619.56
2023-04-10T21:05:42.084Z,100627.47
2023-04-10T21:08:11.080Z,100639.94
2023-04-10T21:10:44.203Z,100637.28
2023-04-10T21:13:16.134Z,100638.28
2023-04-10T21:15:44.787Z,100639.13
2023-04-10T21:18:13.071Z,100646.19
2023-04-10T21:20:43.285Z,100673.59
2023-04-10T21:23:11.763Z,100669.56
2023-04-10T21:25:40.439Z,100687.31
2023-04-10T21:28:08.823Z,100686.81
2023-04-10T21:30:38.593Z,100694.00
2023-04-10T21:33:06.934Z,100704.53
2023-04-10T21:35:35.364Z,100694.91
2023-04-10T21:38:03.748Z,100681.78
2023-04-10T21:40:34.286Z,100668.69
2023-04-10T21:43:03.194Z,100660.69
2023-04-10T21:45:31.877Z,100617.63
2023-04-10T21:48:01.987Z,100653.44
2023-04-10T21:50:30.376Z,100649.06
2023-04-10T21:53:00.059Z,100638.56
2023-04-10T21:55:28.490Z,100642.84
2023-04-10T21:57:57.384Z,100663.06
2023-04-10T22:00:26.280Z,100656.84
2023-04-10T22:02:54.689Z,100663.81
2023-04-10T22:05:25.116Z,100636.69
2023-04-10T22:07:53.718Z,100659.38
2023-04-10T22:10:22.038Z,100659.38
2023-04-10T22:12:50.334Z,100667.25
2023-04-10T22:15:18.677Z,100671.59
2023-04-10T22:17:47.007Z,100664.59
2023-04-10T22:20:15.517Z,100678.75
2023-04-10T22:22:45.288Z,100666.47
2023-04-10T22:25:13.589Z,100676.28
2023-04-10T22:27:41.942Z,100672.06
2023-04-10T22:30:13.034Z,100672.06
2023-04-10T22:32:41.615Z,100665.94
2023-04-10T22:35:10.227Z,100669.63
2023-04-10T22:37:38.687Z,100662.63
2023-04-10T22:40:10.639Z,100660.78
2023-04-10T22:42:38.915Z,100655.56
2023-04-10T22:45:08.848Z,100667.81
2023-04-10T22:47:37.136Z,100666.13
2023-04-10T22:50:07.208Z,100668.72
2023-04-10T22:52:36.040Z,100664.31
2023-04-10T22:55:06.769Z,100662.53
2023-04-10T22:57:36.285Z,100665.13
2023-04-10T23:00:05.389Z,100670.41
2023-04-10T23:02:33.802Z,100677.47
2023-04-10T23:05:02.863Z,100677.47
2023-04-10T23:07:31.158Z,100668.66
2023-04-10T23:10:01.260Z,100667.75
2023-04-10T23:12:29.675Z,100668.78
2023-04-10T23:14:59.452Z,100674.06
2023-04-10T23:17:27.718Z,100664.34
2023-04-10T23:19:56.072Z,100672.34
2023-04-10T23:22:24.465Z,100680.25
2023-04-10T23:24:54.897Z,100679.31
2023-04-10T23:27:23.973Z,100674.00
2023-04-10T23:29:52.414Z,100681.94
2023-04-10T23:32:22.170Z,100678.38
2023-04-10T23:34:50.535Z,100680.94
2023-04-10T23:37:18.812Z,100685.41
2023-04-10T23:39:47.195Z,100681.00
2023-04-10T23:42:15.488Z,100685.53
2023-04-10T23:44:43.788Z,100684.59
2023-04-10T23:47:12.111Z,100685.47
2023-04-10T23:49:41.759Z,100682.03
2023-04-10T23:52:11.569Z,100688.22
2023-04-10T23:54:39.903Z,100676.00
2023-04-10T23:57:08.181Z,100687.34
2023-04-10T23:59:36.509Z,100692.63
